Time;durP1;ratioP1;P1;durP2;ratioP2;P2;SDS_P1;SDS_P2;PMS_P1;PMS_P2;Temp;Humidity;BMP_temperature;BMP_pressure;BME280_temperature;BME280_humidity;BME280_pressure;Samples;Min_cycle;Max_cycle;Signal;HPM_P1;HPM_P2
2022/05/20 00:01:37;;;;;;;12.27;5.28;;;19.60;99.90;;;;;;5222277;28;20048;-73
2022/05/20 00:04:10;;;;;;;5.82;5.10;;;19.40;99.90;;;;;;5225332;28;20051;-73
2022/05/20 00:06:43;;;;;;;16.17;5.32;;;19.40;99.90;;;;;;5231968;28;20052;-72
2022/05/20 00:09:15;;;;;;;14.32;5.65;;;19.40;99.90;;;;;;5221917;28;20045;-73
2022/05/20 00:11:48;;;;;;;8.32;5.10;;;19.40;99.90;;;;;;5213510;28;20075;-74
2022/05/20 00:14:21;;;;;;;13.02;5.93;;;19.30;99.90;;;;;;5227393;28;20538;-73
2022/05/20 00:16:54;;;;;;;12.45;5.43;;;19.40;99.90;;;;;;5219334;28;20063;-74
2022/05/20 00:19:27;;;;;;;9.02;4.85;;;19.40;99.90;;;;;;5222235;28;20055;-74
2022/05/20 00:22:01;;;;;;;8.50;4.88;;;19.40;99.90;;;;;;5225272;28;20483;-73
2022/05/20 00:25:45;;;;;;;8.20;4.30;;;19.30;99.90;;;;;;5227500;28;20488;-73
2022/05/20 00:27:27;;;;;;;12.80;4.60;;;19.30;99.90;;;;;;5221109;28;20428;-73
2022/05/20 00:30:00;;;;;;;18.33;4.72;;;19.30;99.90;;;;;;5224539;28;20313;-73
2022/05/20 00:32:33;;;;;;;6.97;4.65;;;19.30;99.90;;;;;;5220782;28;20061;-73
2022/05/20 00:35:06;;;;;;;7.47;4.88;;;19.30;99.90;;;;;;5222443;28;20052;-73
2022/05/20 00:37:40;;;;;;;8.55;4.88;;;19.20;99.90;;;;;;5223366;28;20796;-73
2022/05/20 00:40:15;;;;;;;12.80;5.35;;;19.20;99.90;;;;;;5224602;28;20036;-72
2022/05/20 00:42:49;;;;;;;9.60;4.75;;;19.10;99.90;;;;;;5221773;28;20607;-73
2022/05/20 00:45:21;;;;;;;9.35;5.10;;;19.20;99.90;;;;;;5217271;28;20147;-73
2022/05/20 00:47:55;;;;;;;6.85;5.25;;;19.10;99.90;;;;;;5217944;28;20071;-72
2022/05/20 00:50:28;;;;;;;9.23;5.70;;;19.00;99.90;;;;;;5226467;28;20048;-73
2022/05/20 00:53:01;;;;;;;9.77;5.15;;;19.00;99.90;;;;;;5224847;28;20044;-73
2022/05/20 00:55:34;;;;;;;12.45;4.97;;;18.90;99.90;;;;;;5224774;28;20056;-74
2022/05/20 00:58:12;;;;;;;8.75;5.63;;;18.90;99.90;;;;;;5227828;28;21256;-74
2022/05/20 01:00:50;;;;;;;7.97;5.55;;;18.90;99.90;;;;;;5214506;28;20055;-74
2022/05/20 01:03:26;;;;;;;10.73;5.00;;;18.80;99.90;;;;;;5221212;28;20044;-74
2022/05/20 01:06:01;;;;;;;12.38;4.97;;;18.80;99.90;;;;;;5220898;28;20045;-72
2022/05/20 01:08:39;;;;;;;8.70;5.55;;;18.70;99.90;;;;;;5224520;28;20045;-73
2022/05/20 01:11:12;;;;;;;7.97;5.18;;;18.70;99.90;;;;;;5240230;28;20040;-73
2022/05/20 01:13:49;;;;;;;9.55;5.60;;;18.60;99.90;;;;;;5246056;28;20047;-72
2022/05/20 01:16:21;;;;;;;9.40;5.40;;;18.50;99.90;;;;;;5223260;28;20068;-73
2022/05/20 01:18:56;;;;;;;13.23;5.50;;;18.50;99.90;;;;;;5230279;28;20067;-73
2022/05/20 01:21:28;;;;;;;8.48;5.45;;;18.50;99.90;;;;;;5229204;28;20151;-73
2022/05/20 01:24:03;;;;;;;8.75;5.57;;;18.50;99.90;;;;;;5230363;28;20064;-72
2022/05/20 01:26:35;;;;;;;7.28;5.63;;;18.50;99.90;;;;;;5223707;28;20516;-72
2022/05/20 01:29:08;;;;;;;13.68;6.40;;;18.50;99.90;;;;;;5229737;28;20048;-73
2022/05/20 01:31:41;;;;;;;10.05;5.53;;;18.50;99.90;;;;;;5217671;28;20041;-72
2022/05/20 01:34:13;;;;;;;5.97;4.90;;;18.50;99.90;;;;;;5222559;28;20053;-73
2022/05/20 01:36:46;;;;;;;7.97;5.55;;;18.50;99.90;;;;;;5223964;28;20481;-72
2022/05/20 01:39:19;;;;;;;7.55;5.13;;;18.50;99.90;;;;;;5224868;28;20044;-73
2022/05/20 01:42:17;;;;;;;8.82;5.57;;;18.50;99.90;;;;;;5223716;28;20052;-73
2022/05/20 01:45:15;;;;;;;8.32;5.05;;;18.40;99.90;;;;;;5221809;28;20051;-72
2022/05/20 01:47:58;;;;;;;7.15;4.50;;;18.40;99.90;;;;;;5240924;28;20037;-72
2022/05/20 01:50:38;;;;;;;5.50;4.82;;;18.30;99.90;;;;;;5220111;28;20048;-73
2022/05/20 01:53:19;;;;;;;6.07;3.67;;;18.30;99.90;;;;;;5238611;28;20055;-73
2022/05/20 01:55:52;;;;;;;9.35;4.35;;;18.30;99.90;;;;;;5205615;28;20141;-73
2022/05/20 01:58:27;;;;;;;6.60;3.83;;;18.30;99.90;;;;;;5218409;28;20526;-73
2022/05/20 02:01:03;;;;;;;5.43;3.42;;;18.20;99.90;;;;;;5201150;28;20045;-73
2022/05/20 02:03:43;;;;;;;8.38;3.53;;;18.30;99.90;;;;;;5205842;28;20048;-73
2022/05/20 02:06:36;;;;;;;4.32;3.67;;;18.20;99.90;;;;;;5182033;28;20491;-72
2022/05/20 02:09:21;;;;;;;6.20;3.40;;;18.20;99.90;;;;;;5203946;28;20036;-73
2022/05/20 02:11:54;;;;;;;;;;;18.20;99.90;;;;;;5205143;28;20045;-72
2022/05/20 02:14:35;;;;;;;6.70;3.35;;;18.10;99.90;;;;;;5204711;28;20678;-72
2022/05/20 02:17:17;;;;;;;6.10;3.47;;;18.10;99.90;;;;;;5199621;28;20642;-71
2022/05/20 02:20:41;;;;;;;5.65;3.80;;;18.10;99.90;;;;;;5207927;28;20048;-71
2022/05/20 02:23:25;;;;;;;5.18;3.10;;;18.10;99.90;;;;;;5154356;28;20048;-73
2022/05/20 02:26:02;;;;;;;;;;;18.00;99.90;;;;;;5220784;28;20040;-74
2022/05/20 02:28:38;;;;;;;5.18;3.40;;;17.90;99.90;;;;;;5231526;28;20007;-73
2022/05/20 02:31:16;;;;;;;4.93;3.40;;;17.90;99.90;;;;;;5216191;28;20039;-73
2022/05/20 02:33:50;;;;;;;3.95;2.75;;;17.90;99.90;;;;;;5210479;28;20044;-74
2022/05/20 02:36:32;;;;;;;8.02;3.35;;;17.80;99.90;;;;;;5185584;28;20059;-73
2022/05/20 02:39:14;;;;;;;3.90;3.33;;;17.80;99.90;;;;;;5201268;28;20169;-74
2022/05/20 02:41:48;;;;;;;5.70;3.40;;;17.70;99.90;;;;;;5218824;28;20048;-72
2022/05/20 02:44:21;;;;;;;6.82;3.40;;;17.80;99.90;;;;;;5214806;28;20043;-74
2022/05/20 02:46:53;;;;;;;5.72;3.13;;;17.70;99.90;;;;;;5213971;28;20055;-73
2022/05/20 02:49:26;;;;;;;8.10;3.77;;;17.70;99.90;;;;;;5190843;28;20051;-74
2022/05/20 02:51:59;;;;;;;5.75;3.55;;;17.70;99.90;;;;;;5196514;28;20909;-73
2022/05/20 02:54:31;;;;;;;7.15;3.25;;;17.60;99.90;;;;;;5207974;28;20607;-73
2022/05/20 02:57:05;;;;;;;4.78;3.58;;;17.60;99.90;;;;;;5237468;28;20044;-72
2022/05/20 03:05:21;;;;;;;3.70;3.05;;;17.50;99.90;;;;;;5246752;28;20044;-73
2022/05/20 03:07:53;;;;;;;;;;;17.50;99.90;;;;;;5244932;28;20060;-73
2022/05/20 03:10:26;;;;;;;4.85;3.42;;;17.30;99.90;;;;;;5247367;28;19935;-72
2022/05/20 03:13:02;;;;;;;4.77;2.83;;;17.30;99.90;;;;;;5243156;28;20066;-72
2022/05/20 03:15:39;;;;;;;4.47;3.45;;;17.30;99.90;;;;;;5246652;28;20052;-72
2022/05/20 03:18:13;;;;;;;4.95;2.92;;;17.30;99.90;;;;;;5224464;28;20059;-73
2022/05/20 03:20:46;;;;;;;8.30;3.25;;;17.20;99.90;;;;;;5249688;28;20043;-73
2022/05/20 03:23:19;;;;;;;8.85;3.75;;;17.20;99.90;;;;;;5245638;28;20051;-72
2022/05/20 03:25:52;;;;;;;4.20;3.80;;;17.20;99.90;;;;;;5228933;28;20056;-73
2022/05/20 03:28:24;;;;;;;5.45;3.42;;;17.10;99.90;;;;;;5227202;28;20302;-73
2022/05/20 03:31:05;;;;;;;3.90;3.20;;;17.20;99.90;;;;;;5247556;28;20044;-73
2022/05/20 03:33:40;;;;;;;5.88;3.80;;;17.20;99.90;;;;;;5245254;28;20033;-72
2022/05/20 03:36:14;;;;;;;4.28;3.55;;;17.20;99.90;;;;;;5246154;28;20099;-72
2022/05/20 03:38:49;;;;;;;4.25;3.10;;;17.20;99.90;;;;;;5246133;28;20044;-72
2022/05/20 03:41:23;;;;;;;6.20;3.40;;;17.20;99.90;;;;;;5235808;28;20048;-72
2022/05/20 03:43:56;;;;;;;4.25;3.00;;;17.20;99.90;;;;;;5244700;28;20040;-73
2022/05/20 03:46:30;;;;;;;3.88;3.40;;;17.20;99.90;;;;;;5244870;28;20071;-73
2022/05/20 03:49:02;;;;;;;4.00;2.95;;;17.20;99.90;;;;;;5242988;28;20036;-73
2022/05/20 03:51:35;;;;;;;3.83;3.42;;;17.20;99.90;;;;;;5236800;28;20958;-73
2022/05/20 03:54:08;;;;;;;4.57;3.85;;;17.10;99.90;;;;;;5209403;28;20071;-72
2022/05/20 03:56:41;;;;;;;5.95;3.53;;;17.10;99.90;;;;;;5194215;28;20051;-72
2022/05/20 03:59:14;;;;;;;4.38;3.35;;;17.20;99.90;;;;;;5210447;28;20350;-73
2022/05/20 04:01:59;;;;;;;4.73;3.50;;;17.20;99.90;;;;;;5210720;28;20040;-73
2022/05/20 04:04:41;;;;;;;4.75;3.25;;;17.20;99.90;;;;;;5235487;28;20036;-73
2022/05/20 04:07:21;;;;;;;4.97;3.28;;;17.20;99.90;;;;;;5232356;28;20040;-73
2022/05/20 04:09:53;;;;;;;3.88;3.40;;;17.30;99.90;;;;;;5232061;28;20412;-73
2022/05/20 04:12:38;;;;;;;11.23;3.70;;;17.30;99.90;;;;;;5235195;28;20050;-73
2022/05/20 04:15:14;;;;;;;5.70;3.38;;;17.30;99.90;;;;;;5230179;28;20047;-73
2022/05/20 04:17:47;;;;;;;6.95;3.47;;;17.40;99.90;;;;;;5233448;28;20052;-74
2022/05/20 04:20:19;;;;;;;5.13;3.42;;;17.40;99.90;;;;;;5226074;28;20381;-73
2022/05/20 04:22:52;;;;;;;5.82;3.70;;;17.40;99.90;;;;;;5234037;28;20039;-73
2022/05/20 04:25:24;;;;;;;5.27;4.03;;;17.40;99.90;;;;;;5242778;28;21450;-73
2022/05/20 04:27:57;;;;;;;5.53;3.53;;;17.50;99.90;;;;;;5238758;28;20044;-73
2022/05/20 04:30:30;;;;;;;6.47;3.78;;;17.50;99.90;;;;;;5223916;28;20044;-72
2022/05/20 04:33:02;;;;;;;6.80;3.88;;;17.50;99.90;;;;;;5235992;28;20166;-72
2022/05/20 04:35:35;;;;;;;7.65;4.03;;;17.60;99.90;;;;;;5248189;28;20618;-72
2022/05/20 04:38:07;;;;;;;4.65;3.20;;;17.70;99.90;;;;;;5241105;28;20503;-73
2022/05/20 04:40:40;;;;;;;4.90;3.50;;;17.70;99.90;;;;;;5238283;28;20044;-73
2022/05/20 04:48:56;;;;;;;5.57;3.88;;;17.80;99.90;;;;;;5236255;28;20040;-74
2022/05/20 04:51:28;;;;;;;7.97;3.80;;;17.90;99.90;;;;;;5242187;28;20044;-73
2022/05/20 04:56:52;;;;;;;8.50;3.20;;;18.00;99.90;;;;;;5231340;28;20762;-73
2022/05/20 04:59:25;;;;;;;5.40;3.83;;;18.10;99.90;;;;;;5223868;28;20052;-72
2022/05/20 05:01:58;;;;;;;7.40;3.77;;;18.20;99.90;;;;;;5227125;28;20036;-73
2022/05/20 05:04:31;;;;;;;5.63;3.80;;;18.30;99.90;;;;;;5208700;28;20040;-73
2022/05/20 05:07:03;;;;;;;6.75;3.30;;;18.30;99.90;;;;;;5220331;28;20305;-73
2022/05/20 05:09:37;;;;;;;7.05;3.75;;;18.40;99.90;;;;;;5203635;28;20569;-72
2022/05/20 05:12:12;;;;;;;5.30;3.03;;;18.40;99.90;;;;;;5220945;28;20051;-73
2022/05/20 05:14:49;;;;;;;6.13;3.55;;;18.50;99.90;;;;;;5238342;28;20697;-72
2022/05/20 05:20:21;;;;;;;7.55;3.67;;;18.70;99.90;;;;;;5203515;28;20051;-70
2022/05/20 05:22:56;;;;;;;4.57;3.28;;;18.80;99.90;;;;;;5212982;28;20056;-72
2022/05/20 05:25:31;;;;;;;6.20;3.28;;;18.90;99.90;;;;;;5215727;28;20048;-71
2022/05/20 05:28:04;;;;;;;6.93;3.38;;;19.00;99.90;;;;;;5205474;28;20035;-72
2022/05/20 05:30:37;;;;;;;6.28;4.40;;;19.20;99.90;;;;;;5219979;28;20047;-71
2022/05/20 05:33:09;;;;;;;6.38;3.25;;;19.30;99.90;;;;;;5208618;28;20534;-73
2022/05/20 05:35:42;;;;;;;7.75;3.75;;;19.40;99.70;;;;;;5206805;28;20033;-72
2022/05/20 05:38:15;;;;;;;6.00;3.90;;;19.50;99.10;;;;;;5238020;28;20047;-72
2022/05/20 05:40:47;;;;;;;4.65;3.67;;;19.60;99.60;;;;;;5247313;28;20060;-72
2022/05/20 05:43:20;;;;;;;8.05;3.63;;;19.80;98.60;;;;;;5247649;28;20044;-72
2022/05/20 05:45:52;;;;;;;5.25;3.40;;;19.90;98.30;;;;;;5253980;28;20423;-72
2022/05/20 05:48:25;;;;;;;5.85;3.25;;;20.00;97.80;;;;;;5246448;28;20040;-71
2022/05/20 05:50:59;;;;;;;5.57;3.30;;;20.20;96.90;;;;;;5254982;28;20052;-72
2022/05/20 05:53:31;;;;;;;5.78;3.50;;;20.30;96.70;;;;;;5255891;28;20128;-72
2022/05/20 05:56:06;;;;;;;4.50;3.57;;;20.50;94.50;;;;;;5248113;28;20495;-72
2022/05/20 05:58:39;;;;;;;5.57;3.90;;;20.60;94.10;;;;;;5252121;28;20063;-72
2022/05/20 06:01:13;;;;;;;9.05;3.50;;;20.70;93.50;;;;;;5249058;28;20047;-72
2022/05/20 06:03:46;;;;;;;5.50;3.30;;;20.80;93.30;;;;;;5220181;28;20060;-73
2022/05/20 06:06:18;;;;;;;6.10;2.95;;;20.90;92.70;;;;;;5251713;28;20415;-72
2022/05/20 06:08:51;;;;;;;4.15;3.30;;;21.00;91.40;;;;;;5249868;28;20075;-72
2022/05/20 06:11:24;;;;;;;5.22;3.33;;;21.10;91.20;;;;;;5257926;28;20054;-73
2022/05/20 06:13:56;;;;;;;4.78;3.55;;;21.20;90.60;;;;;;5256352;28;20083;-72
2022/05/20 06:16:30;;;;;;;5.87;3.40;;;21.40;90.20;;;;;;5220739;28;20063;-72
2022/05/20 06:19:03;;;;;;;6.13;3.55;;;21.50;88.90;;;;;;5255328;28;20048;-72
2022/05/20 06:21:37;;;;;;;5.80;3.17;;;21.70;86.30;;;;;;5247612;28;20055;-72
2022/05/20 06:24:09;;;;;;;5.88;3.33;;;21.80;85.50;;;;;;5245995;28;20578;-72
2022/05/20 06:26:42;;;;;;;5.30;3.28;;;22.00;84.70;;;;;;5257083;28;20048;-72
2022/05/20 06:29:15;;;;;;;4.55;3.35;;;22.20;84.60;;;;;;5246318;28;20037;-72
2022/05/20 06:31:47;;;;;;;4.63;3.50;;;22.30;81.90;;;;;;5247981;28;20432;-72
2022/05/20 06:34:20;;;;;;;5.07;3.22;;;22.40;81.60;;;;;;5237479;28;20047;-71
2022/05/20 06:39:49;;;;;;;6.22;3.20;;;22.50;80.20;;;;;;5255515;28;20424;-71
2022/05/20 06:42:21;;;;;;;5.18;3.55;;;22.60;79.30;;;;;;5255005;28;20377;-72
2022/05/20 06:44:57;;;;;;;3.88;2.95;;;22.70;78.60;;;;;;5234126;28;20059;-72
2022/05/20 06:47:30;;;;;;;3.50;3.10;;;22.80;77.30;;;;;;5254953;28;20044;-72
2022/05/20 06:50:05;;;;;;;4.50;3.72;;;22.90;76.80;;;;;;5246012;28;20477;-72
2022/05/20 06:52:38;;;;;;;8.10;3.42;;;23.00;76.10;;;;;;5244197;28;20633;-72
2022/05/20 06:55:11;;;;;;;10.25;3.17;;;23.10;76.50;;;;;;5250249;28;20526;-71
2022/05/20 06:57:43;;;;;;;10.00;2.85;;;23.20;75.10;;;;;;5252228;28;20047;-72
2022/05/20 07:00:16;;;;;;;6.88;3.38;;;23.30;74.90;;;;;;5248103;28;20052;-72
2022/05/20 07:02:48;;;;;;;8.80;3.10;;;23.40;74.60;;;;;;5243448;28;20528;-73
2022/05/20 07:05:21;;;;;;;5.50;3.00;;;23.50;73.90;;;;;;5252950;28;20048;-73
2022/05/20 07:07:54;;;;;;;7.28;3.22;;;23.60;74.10;;;;;;5232396;28;20045;-73
2022/05/20 07:10:26;;;;;;;4.80;3.15;;;23.70;74.80;;;;;;5247822;28;20044;-72
2022/05/20 07:12:59;;;;;;;4.45;3.35;;;23.80;73.50;;;;;;5203673;28;20522;-72
2022/05/20 07:15:32;;;;;;;6.88;3.42;;;24.00;73.40;;;;;;5253294;28;20531;-72
2022/05/20 07:18:04;;;;;;;4.88;3.30;;;24.10;73.40;;;;;;5246220;28;20051;-72
2022/05/20 07:20:37;;;;;;;6.00;3.40;;;24.30;72.30;;;;;;5255248;28;20444;-73
2022/05/20 07:23:09;;;;;;;6.90;3.03;;;24.40;72.00;;;;;;5246678;28;20036;-72
2022/05/20 07:25:42;;;;;;;4.18;3.08;;;24.50;70.60;;;;;;5251788;28;20295;-71
2022/05/20 07:28:14;;;;;;;7.23;3.20;;;24.60;70.00;;;;;;5254037;28;20044;-73
2022/05/20 07:30:47;;;;;;;5.72;3.40;;;24.70;70.50;;;;;;5251327;28;20052;-71
2022/05/20 07:33:20;;;;;;;5.65;3.67;;;24.80;69.80;;;;;;5253710;28;20048;-72
2022/05/20 07:35:53;;;;;;;6.32;3.50;;;24.90;68.30;;;;;;5253302;28;20138;-72
2022/05/20 07:38:26;;;;;;;6.63;3.40;;;25.10;68.80;;;;;;5253646;28;20055;-73
2022/05/20 07:41:00;;;;;;;7.90;3.42;;;25.10;67.00;;;;;;5252108;28;20112;-72
2022/05/20 07:43:33;;;;;;;5.50;2.83;;;25.20;66.10;;;;;;5253259;28;20415;-72
2022/05/20 07:46:06;;;;;;;5.30;2.80;;;25.30;65.50;;;;;;5253655;28;20054;-71
2022/05/20 07:48:38;;;;;;;5.07;3.25;;;25.40;65.20;;;;;;5253831;28;20537;-71
2022/05/20 07:51:17;;;;;;;5.55;3.33;;;25.60;64.60;;;;;;5252632;28;20040;-72
2022/05/20 07:54:00;;;;;;;7.97;3.13;;;25.60;62.40;;;;;;5252407;28;20048;-71
2022/05/20 07:56:51;;;;;;;6.85;3.42;;;25.70;62.10;;;;;;5233188;28;20047;-71
2022/05/20 07:59:39;;;;;;;6.50;3.10;;;25.80;61.80;;;;;;5254107;28;20144;-71
2022/05/20 08:02:15;;;;;;;5.65;3.15;;;25.90;60.70;;;;;;5252885;28;20976;-71
2022/05/20 08:05:01;;;;;;;8.15;3.15;;;25.90;59.40;;;;;;5252080;28;20051;-72
2022/05/20 08:07:41;;;;;;;4.68;2.80;;;26.00;59.90;;;;;;5251602;28;20056;-71
2022/05/20 08:10:22;;;;;;;6.90;3.22;;;26.20;60.60;;;;;;5244652;28;20499;-72
2022/05/20 08:12:56;;;;;;;7.93;3.63;;;26.20;60.90;;;;;;5250161;28;20052;-71
2022/05/20 08:15:31;;;;;;;9.70;3.70;;;26.30;60.70;;;;;;5229359;28;20075;-72
2022/05/20 08:18:04;;;;;;;7.68;3.40;;;26.30;60.20;;;;;;5242153;28;20424;-71
2022/05/20 08:20:36;;;;;;;6.63;2.90;;;26.40;59.10;;;;;;5243553;28;20060;-71
2022/05/20 08:23:09;;;;;;;11.47;3.60;;;26.50;59.70;;;;;;5252817;28;20492;-72
2022/05/20 08:25:41;;;;;;;7.43;2.90;;;26.60;58.40;;;;;;5243916;28;20036;-71
2022/05/20 08:28:14;;;;;;;4.70;3.23;;;26.70;59.00;;;;;;5246656;28;20036;-71
2022/05/20 08:30:47;;;;;;;6.80;2.95;;;26.70;59.10;;;;;;5231645;28;20310;-72
2022/05/20 08:33:19;;;;;;;7.13;3.15;;;26.90;58.10;;;;;;5247063;28;20048;-72
2022/05/20 08:35:52;;;;;;;4.38;2.90;;;27.00;57.90;;;;;;5248966;28;20059;-72
2022/05/20 08:38:25;;;;;;;5.33;3.00;;;27.20;58.40;;;;;;5233390;28;20060;-72
2022/05/20 08:40:59;;;;;;;5.05;2.92;;;27.20;55.60;;;;;;5235527;28;20636;-72
2022/05/20 08:43:33;;;;;;;9.18;3.17;;;27.20;56.00;;;;;;5237549;28;20407;-72
2022/05/20 08:46:08;;;;;;;5.20;2.78;;;27.30;55.40;;;;;;5244453;28;20082;-72
2022/05/20 08:48:43;;;;;;;7.05;3.40;;;27.40;56.10;;;;;;5233333;28;20443;-72
2022/05/20 08:51:16;;;;;;;5.80;3.35;;;27.50;56.60;;;;;;5249624;28;20514;-72
2022/05/20 08:53:54;;;;;;;6.95;2.95;;;27.50;56.10;;;;;;5247471;28;20043;-72
2022/05/20 08:56:27;;;;;;;4.63;3.42;;;27.60;55.80;;;;;;5250315;28;20048;-72
2022/05/20 08:59:04;;;;;;;8.38;4.20;;;27.60;56.10;;;;;;5250143;28;20051;-72
2022/05/20 09:01:41;;;;;;;8.05;3.35;;;27.60;54.60;;;;;;5251342;28;20055;-72
2022/05/20 09:04:16;;;;;;;5.35;3.30;;;27.60;56.00;;;;;;5250887;28;20047;-72
2022/05/20 09:07:10;;;;;;;7.70;3.50;;;27.70;53.90;;;;;;5249595;28;20410;-73
2022/05/20 09:09:49;;;;;;;5.18;2.83;;;27.60;53.80;;;;;;5237260;28;20040;-72
2022/05/20 09:12:37;;;;;;;4.43;3.20;;;27.50;53.60;;;;;;5233193;28;20056;-72
2022/05/20 09:18:29;;;;;;;4.68;3.42;;;27.60;54.60;;;;;;5248838;28;20256;-72
2022/05/20 09:21:03;;;;;;;5.88;3.63;;;27.70;54.40;;;;;;5251315;28;20048;-72
2022/05/20 09:23:50;;;;;;;;;;;27.70;55.60;;;;;;5246715;28;20052;-72
2022/05/20 09:26:25;;;;;;;8.52;3.40;;;27.60;54.60;;;;;;5250965;28;19943;-71
2022/05/20 09:29:26;;;;;;;15.30;3.78;;;27.70;53.80;;;;;;5252627;28;20051;-72
2022/05/20 09:32:28;;;;;;;6.30;3.65;;;27.70;53.70;;;;;;5250168;28;20041;-71
2022/05/20 09:35:19;;;;;;;4.50;3.47;;;27.70;53.50;;;;;;5231739;28;20416;-70
2022/05/20 09:37:53;;;;;;;7.30;3.25;;;27.80;54.00;;;;;;5236297;28;20052;-71
2022/05/20 09:40:33;;;;;;;7.38;3.15;;;27.90;53.20;;;;;;5250789;28;20048;-71
2022/05/20 09:43:28;;;;;;;6.30;3.88;;;28.10;54.50;;;;;;5241877;28;20044;-71
2022/05/20 09:46:03;;;;;;;9.60;4.15;;;28.10;53.70;;;;;;5219145;28;20396;-71
2022/05/20 09:49:04;;;;;;;6.35;3.63;;;28.10;52.90;;;;;;5215056;28;20071;-71
2022/05/20 09:51:58;;;;;;;7.97;4.03;;;28.30;53.80;;;;;;5251872;28;20044;-71
2022/05/20 09:54:32;;;;;;;5.97;3.80;;;28.30;52.60;;;;;;5251881;28;20048;-72
2022/05/20 09:57:39;;;;;;;7.65;3.67;;;28.50;53.10;;;;;;5251020;28;20062;-71
2022/05/20 10:00:23;;;;;;;4.95;3.63;;;28.40;51.50;;;;;;5249071;28;20048;-72
2022/05/20 10:03:10;;;;;;;6.68;3.67;;;28.40;51.40;;;;;;5253338;28;20048;-72
2022/05/20 10:06:06;;;;;;;7.18;3.80;;;28.50;52.60;;;;;;5232703;28;20052;-72
2022/05/20 10:08:55;;;;;;;7.55;4.35;;;28.60;52.50;;;;;;5246236;28;20123;-72
2022/05/20 10:11:50;;;;;;;6.88;3.45;;;28.70;51.50;;;;;;5255949;28;20063;-72
2022/05/20 10:14:29;;;;;;;7.18;4.03;;;28.80;50.80;;;;;;5256448;28;20044;-72
2022/05/20 10:17:27;;;;;;;8.02;3.75;;;29.10;51.70;;;;;;5232304;28;20044;-70
2022/05/20 10:20:11;;;;;;;8.80;3.97;;;29.30;51.50;;;;;;5248969;28;20152;-73
2022/05/20 10:22:56;;;;;;;6.10;4.00;;;29.50;51.40;;;;;;5245073;28;20498;-71
2022/05/20 10:25:48;;;;;;;9.75;3.65;;;29.60;50.00;;;;;;5253561;28;20516;-71
2022/05/20 10:34:41;;;;;;;6.18;3.60;;;30.20;49.50;;;;;;5241722;28;20044;-72
2022/05/20 10:37:31;;;;;;;11.02;5.13;;;30.30;49.60;;;;;;5250687;28;20055;-72
2022/05/20 10:40:28;;;;;;;6.10;3.75;;;30.80;51.00;;;;;;5245915;28;20052;-73
2022/05/20 10:49:57;;;;;;;8.00;4.10;;;31.30;49.20;;;;;;5251514;28;20048;-72
2022/05/20 10:53:05;;;;;;;7.35;3.70;;;31.60;47.60;;;;;;5250222;28;20055;-73
2022/05/20 10:56:33;;;;;;;9.00;4.35;;;31.60;49.10;;;;;;5253862;28;20048;-72
2022/05/20 10:59:11;;;;;;;7.55;4.30;;;32.20;46.90;;;;;;5187830;28;20053;-73
2022/05/20 11:02:08;;;;;;;7.68;3.90;;;32.00;47.80;;;;;;5255400;28;20062;-73
2022/05/20 11:05:02;;;;;;;5.57;3.95;;;32.10;46.80;;;;;;5254588;28;20063;-73
2022/05/20 11:07:50;;;;;;;5.90;4.15;;;32.40;46.90;;;;;;5231400;28;20032;-73
2022/05/20 11:10:28;;;;;;;9.55;3.97;;;32.40;45.90;;;;;;5251851;28;20036;-73
2022/05/20 11:13:24;;;;;;;7.93;3.90;;;32.70;46.90;;;;;;5253746;28;20055;-73
2022/05/20 11:16:29;;;;;;;7.20;3.70;;;33.20;46.90;;;;;;5247509;28;20055;-72
2022/05/20 11:19:43;;;;;;;9.68;4.20;;;33.20;45.10;;;;;;5245834;28;20044;-73
2022/05/20 11:22:31;;;;;;;5.03;3.60;;;33.00;45.70;;;;;;5228381;28;20067;-74
2022/05/20 11:25:30;;;;;;;11.38;4.30;;;33.20;45.50;;;;;;5238410;28;20036;-75
2022/05/20 11:28:23;;;;;;;5.63;3.92;;;33.50;44.50;;;;;;5230276;28;20043;-75
2022/05/20 11:31:21;;;;;;;10.75;4.00;;;33.50;43.40;;;;;;5245765;28;20036;-74
2022/05/20 11:34:09;;;;;;;5.32;3.63;;;33.50;43.40;;;;;;5232314;28;20488;-74
2022/05/20 11:36:57;;;;;;;7.22;3.65;;;33.50;42.80;;;;;;5236847;28;20407;-75
2022/05/20 11:39:51;;;;;;;6.45;3.78;;;33.40;46.20;;;;;;5231217;28;20066;-75
2022/05/20 11:42:41;;;;;;;9.70;3.67;;;33.60;43.10;;;;;;5227633;28;20403;-73
2022/05/20 11:45:31;;;;;;;7.30;3.70;;;33.60;42.20;;;;;;5219727;28;20374;-74
2022/05/20 11:48:20;;;;;;;5.25;3.65;;;33.20;42.50;;;;;;5224218;28;20408;-74
2022/05/20 11:51:04;;;;;;;5.72;3.60;;;32.90;43.30;;;;;;5208197;28;20044;-74
2022/05/20 11:54:15;;;;;;;7.45;3.88;;;33.20;42.40;;;;;;5217118;28;20075;-74
2022/05/20 11:56:58;;;;;;;6.75;4.28;;;33.20;43.10;;;;;;5220861;28;20051;-74
2022/05/20 12:00:05;;;;;;;6.25;4.28;;;33.70;43.20;;;;;;5236159;28;20051;-74
2022/05/20 12:02:55;;;;;;;7.50;3.97;;;34.30;41.90;;;;;;5218472;28;20065;-76
2022/05/20 12:05:32;;;;;;;5.72;3.75;;;34.40;43.80;;;;;;5226442;28;20051;-75
2022/05/20 12:08:05;;;;;;;6.35;3.70;;;34.20;41.50;;;;;;5235826;28;20048;-75
2022/05/20 12:10:37;;;;;;;5.32;3.78;;;34.70;41.20;;;;;;5232442;28;20041;-76
2022/05/20 12:13:10;;;;;;;11.20;4.38;;;34.50;40.90;;;;;;5237743;28;20384;-76
2022/05/20 12:15:50;;;;;;;7.10;3.92;;;34.60;41.50;;;;;;5235700;28;20058;-76
2022/05/20 12:24:40;;;;;;;7.60;3.95;;;35.70;40.40;;;;;;5238328;28;20516;-75
2022/05/20 12:27:22;;;;;;;6.80;3.72;;;35.60;39.10;;;;;;5239564;28;20064;-75
2022/05/20 12:29:55;;;;;;;6.78;3.95;;;35.50;40.20;;;;;;5232158;28;20037;-74
2022/05/20 12:32:36;;;;;;;10.75;4.38;;;35.70;39.30;;;;;;5238646;28;20048;-75
2022/05/20 12:35:15;;;;;;;6.82;3.83;;;35.50;40.70;;;;;;5234063;28;20767;-76
2022/05/20 12:37:48;;;;;;;7.15;3.88;;;35.40;38.90;;;;;;5230681;28;20067;-76
2022/05/20 12:40:26;;;;;;;9.65;4.05;;;35.60;40.10;;;;;;5210720;28;20043;-76
2022/05/20 12:43:02;;;;;;;5.68;3.92;;;35.70;39.40;;;;;;5241338;28;20496;-75
2022/05/20 12:45:54;;;;;;;6.32;4.10;;;36.00;39.80;;;;;;5228360;28;20047;-76
2022/05/20 12:48:30;;;;;;;7.53;3.97;;;35.70;37.20;;;;;;5224669;28;20500;-73
2022/05/20 12:51:07;;;;;;;4.78;3.88;;;35.50;38.90;;;;;;5230126;28;20189;-74
2022/05/20 12:53:40;;;;;;;6.38;3.72;;;35.40;38.60;;;;;;5236501;28;20048;-74
2022/05/20 12:56:33;;;;;;;5.78;3.67;;;35.70;39.90;;;;;;5230831;28;20036;-75
2022/05/20 12:59:20;;;;;;;10.60;3.97;;;36.00;38.60;;;;;;5230012;28;20048;-75
2022/05/20 13:01:57;;;;;;;6.82;3.90;;;35.90;38.70;;;;;;5213368;28;20484;-73
2022/05/20 13:04:37;;;;;;;7.80;4.07;;;35.90;38.50;;;;;;5219274;28;20055;-75
2022/05/20 13:07:17;;;;;;;8.82;4.00;;;36.20;37.80;;;;;;5220232;28;20052;-75
2022/05/20 13:09:50;;;;;;;4.72;3.50;;;35.90;37.90;;;;;;5219046;28;20032;-75
2022/05/20 13:12:23;;;;;;;5.68;3.78;;;36.00;38.40;;;;;;5237421;28;20059;-76
2022/05/20 13:15:02;;;;;;;8.80;4.10;;;36.00;39.30;;;;;;5212232;28;20044;-74
2022/05/20 13:17:35;;;;;;;6.45;3.95;;;36.50;39.50;;;;;;5223089;28;20036;-71
2022/05/20 13:20:10;;;;;;;5.20;3.78;;;36.70;36.80;;;;;;5209125;28;20049;-77
2022/05/20 13:22:50;;;;;;;7.10;4.45;;;36.50;37.60;;;;;;5231458;28;20439;-75
2022/05/20 13:25:23;;;;;;;5.90;3.72;;;36.80;37.30;;;;;;5213825;28;20045;-76
2022/05/20 13:27:56;;;;;;;10.40;5.15;;;36.80;38.10;;;;;;5225053;28;20036;-75
2022/05/20 13:30:31;;;;;;;6.43;3.58;;;36.30;38.10;;;;;;5206282;28;20364;-75
2022/05/20 13:33:07;;;;;;;8.68;3.92;;;36.10;37.40;;;;;;5209001;28;20045;-75
2022/05/20 13:35:50;;;;;;;12.35;4.45;;;35.40;38.70;;;;;;5210156;28;20818;-75
2022/05/20 13:38:27;;;;;;;8.45;4.20;;;35.30;39.10;;;;;;5214676;28;20063;-75
2022/05/20 13:41:00;;;;;;;6.43;3.83;;;35.60;39.50;;;;;;5226406;28;20048;-75
2022/05/20 13:43:36;;;;;;;15.10;4.38;;;35.80;39.00;;;;;;5218234;28;20052;-76
2022/05/20 13:49:13;;;;;;;7.53;3.95;;;36.40;38.50;;;;;;5217868;28;20068;-75
2022/05/20 13:51:50;;;;;;;7.40;3.95;;;36.70;38.10;;;;;;5216845;28;20067;-74
2022/05/20 13:54:32;;;;;;;7.38;3.40;;;36.70;37.70;;;;;;5229812;28;21165;-74
2022/05/20 13:57:11;;;;;;;8.02;4.00;;;36.70;37.50;;;;;;5215393;28;20055;-75
2022/05/20 13:59:44;;;;;;;6.82;3.70;;;36.80;37.10;;;;;;5230813;28;20055;-75
2022/05/20 14:02:18;;;;;;;9.57;5.15;;;36.70;37.60;;;;;;5216475;28;20937;-74
2022/05/20 14:04:54;;;;;;;5.93;3.60;;;36.60;36.70;;;;;;5229564;28;20059;-75
2022/05/20 14:07:27;;;;;;;7.00;4.18;;;36.60;36.90;;;;;;5213316;28;20053;-76
2022/05/20 14:10:20;;;;;;;6.10;4.30;;;36.60;37.70;;;;;;5239459;28;20051;-76
2022/05/20 14:13:21;;;;;;;10.93;4.30;;;37.00;37.10;;;;;;5200725;28;20049;-75
2022/05/20 14:15:59;;;;;;;8.48;3.92;;;36.90;36.70;;;;;;5234247;28;20044;-75
2022/05/20 14:18:35;;;;;;;6.88;3.97;;;36.60;36.00;;;;;;5216968;28;20047;-74
2022/05/20 14:21:27;;;;;;;7.53;4.07;;;36.70;37.70;;;;;;5230237;28;20048;-74
2022/05/20 14:24:08;;;;;;;6.53;3.65;;;36.80;37.50;;;;;;5238124;28;20060;-74
2022/05/20 14:26:44;;;;;;;6.13;4.05;;;37.10;37.10;;;;;;5246564;28;20513;-74
2022/05/20 14:29:17;;;;;;;8.70;3.60;;;37.20;36.90;;;;;;5231991;28;20048;-75
2022/05/20 14:32:00;;;;;;;12.40;4.43;;;36.90;36.70;;;;;;5222681;28;20048;-75